createdAt,value
2017-11-18T00:00:01.407Z,1020.79
2017-11-18T00:01:01.401Z,1020.74
2017-11-18T00:02:01.392Z,1020.72
2017-11-18T00:03:01.383Z,1020.73
2017-11-18T00:04:01.376Z,1020.66
2017-11-18T00:05:01.379Z,1020.71
2017-11-18T00:06:01.358Z,1020.62
2017-11-18T00:07:01.353Z,1020.68
2017-11-18T00:08:01.345Z,1020.60
2017-11-18T00:09:01.338Z,1020.57
2017-11-18T00:10:01.329Z,1020.60
2017-11-18T00:11:01.321Z,1020.62
2017-11-18T00:12:01.312Z,1020.62
2017-11-18T00:13:01.304Z,1020.58
2017-11-18T00:14:01.296Z,1020.59
2017-11-18T00:15:01.282Z,1020.59
2017-11-18T00:16:01.274Z,1020.54
2017-11-18T00:17:01.266Z,1020.52
2017-11-18T00:18:01.257Z,1020.57
2017-11-18T00:19:01.249Z,1020.54
2017-11-18T00:20:01.241Z,1020.56
2017-11-18T00:21:01.231Z,1020.55
2017-11-18T00:22:01.225Z,1020.54
2017-11-18T00:23:01.219Z,1020.52
2017-11-18T00:24:01.211Z,1020.56
2017-11-18T00:25:01.211Z,1020.53
2017-11-18T00:26:01.193Z,1020.54
2017-11-18T00:27:01.184Z,1020.53
2017-11-18T00:28:01.178Z,1020.50
2017-11-18T00:29:01.168Z,1020.49
2017-11-18T00:30:01.159Z,1020.46
2017-11-18T00:31:01.148Z,1020.48
2017-11-18T00:32:01.139Z,1020.52
2017-11-18T00:33:01.130Z,1020.46
2017-11-18T00:34:01.134Z,1020.43
2017-11-18T00:35:01.121Z,1020.44
2017-11-18T00:36:01.110Z,1020.49
2017-11-18T00:37:01.101Z,1020.45
2017-11-18T00:38:01.093Z,1020.45
2017-11-18T00:39:01.087Z,1020.50
2017-11-18T00:40:01.072Z,1020.51
2017-11-18T00:41:01.062Z,1020.49
2017-11-18T00:42:01.054Z,1020.42
2017-11-18T00:43:01.045Z,1020.39
2017-11-18T00:44:01.038Z,1020.48
2017-11-18T00:45:01.030Z,1020.47
2017-11-18T00:46:01.020Z,1020.43
2017-11-18T00:47:01.017Z,1020.50
2017-11-18T00:48:01.008Z,1020.48
2017-11-18T00:49:00.997Z,1020.46
2017-11-18T00:50:00.990Z,1020.53
2017-11-18T00:51:00.981Z,1020.49
2017-11-18T00:52:00.973Z,1020.49
2017-11-18T00:53:00.965Z,1020.47
2017-11-18T00:54:00.955Z,1020.43
2017-11-18T00:55:00.942Z,1020.38
2017-11-18T00:56:00.935Z,1020.43
2017-11-18T00:57:00.925Z,1020.37
2017-11-18T00:58:00.916Z,1020.47
2017-11-18T00:59:00.907Z,1020.40
2017-11-18T01:00:00.899Z,1020.41
2017-11-18T01:01:00.890Z,1020.40
2017-11-18T01:02:00.880Z,1020.43
2017-11-18T01:03:00.876Z,1020.43
2017-11-18T01:04:00.866Z,1020.41
2017-11-18T01:05:00.859Z,1020.42
2017-11-18T01:06:00.849Z,1020.44
2017-11-18T01:07:00.839Z,1020.42
2017-11-18T01:08:00.829Z,1020.45
2017-11-18T01:09:00.822Z,1020.44
2017-11-18T01:10:00.812Z,1020.37
2017-11-18T01:11:00.804Z,1020.38
2017-11-18T01:12:00.789Z,1020.32
2017-11-18T01:13:00.782Z,1020.32
2017-11-18T01:14:00.772Z,1020.32
2017-11-18T01:15:00.763Z,1020.30
2017-11-18T01:16:00.755Z,1020.31
2017-11-18T01:17:00.746Z,1020.24
2017-11-18T01:18:00.736Z,1020.28
2017-11-18T01:19:00.732Z,1020.18
2017-11-18T01:20:00.724Z,1020.19
2017-11-18T01:21:00.714Z,1020.21
2017-11-18T01:22:00.705Z,1020.21
2017-11-18T01:23:00.696Z,1020.23
2017-11-18T01:24:00.686Z,1020.15
2017-11-18T01:25:00.679Z,1020.16
2017-11-18T01:26:00.669Z,1020.12
2017-11-18T01:27:00.656Z,1020.09
2017-11-18T01:28:00.646Z,1020.01
2017-11-18T01:29:00.639Z,1020.04
2017-11-18T01:30:00.630Z,1020.10
2017-11-18T01:31:00.645Z,1020.00
2017-11-18T01:32:00.616Z,1020.01
2017-11-18T01:33:00.602Z,1020.02
2017-11-18T01:34:00.592Z,1020.00
2017-11-18T01:35:00.588Z,1020.02
2017-11-18T01:36:00.580Z,1020.02
2017-11-18T01:37:00.570Z,1020.10
2017-11-18T01:38:00.563Z,1020.08
2017-11-18T01:39:00.549Z,1020.15
2017-11-18T01:40:00.540Z,1020.10
2017-11-18T01:41:00.540Z,1020.14
2017-11-18T01:42:00.522Z,1020.08
2017-11-18T01:43:00.517Z,1020.09
2017-11-18T01:44:00.509Z,1020.15
2017-11-18T01:45:00.507Z,1020.08
2017-11-18T01:46:00.491Z,1020.18
2017-11-18T01:47:00.482Z,1020.12
2017-11-18T01:48:00.473Z,1020.03
2017-11-18T01:49:00.465Z,1020.02
2017-11-18T01:50:00.456Z,1020.02
2017-11-18T01:51:00.449Z,1019.97
2017-11-18T01:52:00.434Z,1019.96
2017-11-18T01:53:00.424Z,1019.90
2017-11-18T01:54:00.415Z,1019.91
2017-11-18T01:55:00.408Z,1019.87
2017-11-18T01:56:00.398Z,1019.91
2017-11-18T01:57:00.389Z,1019.86
2017-11-18T01:58:00.380Z,1019.87
2017-11-18T01:59:00.376Z,1019.87
2017-11-18T02:00:00.366Z,1019.89
2017-11-18T02:01:00.357Z,1019.89
2017-11-18T02:02:00.348Z,1019.78
2017-11-18T02:03:00.339Z,1019.81
2017-11-18T02:04:00.331Z,1019.80
2017-11-18T02:05:00.322Z,1019.78
2017-11-18T02:06:00.314Z,1019.83
2017-11-18T02:07:00.299Z,1019.76
2017-11-18T02:08:00.290Z,1019.76
2017-11-18T02:09:00.284Z,1019.73
2017-11-18T02:10:00.273Z,1019.71
2017-11-18T02:11:00.264Z,1019.70
2017-11-18T02:12:00.255Z,1019.65
2017-11-18T02:13:00.246Z,1019.63
2017-11-18T02:14:00.239Z,1019.55
2017-11-18T02:15:00.236Z,1019.46
2017-11-18T02:16:00.223Z,1019.53
2017-11-18T02:17:00.215Z,1019.45
2017-11-18T02:18:00.205Z,1019.51
2017-11-18T02:19:00.197Z,1019.49
2017-11-18T02:20:00.189Z,1019.43
2017-11-18T02:21:00.179Z,1019.45
2017-11-18T02:22:00.170Z,1019.40
2017-11-18T02:23:00.158Z,1019.42
2017-11-18T02:24:00.156Z,1019.43
2017-11-18T02:25:00.140Z,1019.41
2017-11-18T02:26:00.129Z,1019.41
2017-11-18T02:27:00.121Z,1019.38
2017-11-18T02:28:00.112Z,1019.39
2017-11-18T02:29:00.104Z,1019.37
2017-11-18T02:30:00.095Z,1019.38
2017-11-18T02:31:00.089Z,1019.35
2017-11-18T02:32:00.081Z,1019.39
2017-11-18T02:33:00.071Z,1019.39
2017-11-18T02:34:00.067Z,1019.42
2017-11-18T02:35:00.053Z,1019.37
2017-11-18T02:36:00.046Z,1019.38
2017-11-18T02:37:00.036Z,1019.32
2017-11-18T02:38:00.040Z,1019.31
2017-11-18T02:39:00.019Z,1019.34
2017-11-18T02:40:00.006Z,1019.24
2017-11-18T02:40:59.999Z,1019.26
2017-11-18T02:41:59.985Z,1019.29
2017-11-18T02:42:59.980Z,1019.27
2017-11-18T02:43:59.972Z,1019.25
2017-11-18T02:44:59.958Z,1019.23
2017-11-18T02:45:59.949Z,1019.21
2017-11-18T02:46:59.945Z,1019.18
2017-11-18T02:47:59.936Z,1019.15
2017-11-18T02:48:59.926Z,1019.17
2017-11-18T02:49:59.916Z,1019.23
2017-11-18T02:50:59.917Z,1019.19
2017-11-18T02:51:59.900Z,1019.15
2017-11-18T02:52:59.892Z,1019.18
2017-11-18T02:53:59.882Z,1019.13
2017-11-18T02:54:59.868Z,1019.16
2017-11-18T02:55:59.859Z,1019.14
2017-11-18T02:56:59.872Z,1019.15
2017-11-18T02:57:59.848Z,1019.13
2017-11-18T02:58:59.832Z,1019.01
2017-11-18T02:59:59.821Z,1019.09
2017-11-18T03:00:59.813Z,1019.09
2017-11-18T03:01:59.802Z,1019.04
2017-11-18T03:02:59.811Z,1019.05
2017-11-18T03:03:59.789Z,1019.03
2017-11-18T03:04:59.782Z,1019.06
2017-11-18T03:05:59.770Z,1019.01
2017-11-18T03:06:59.761Z,1019.05
2017-11-18T03:07:59.752Z,1018.99
2017-11-18T03:08:59.743Z,1019.00
2017-11-18T03:09:59.734Z,1019.02
2017-11-18T03:10:59.720Z,1019.02
2017-11-18T03:11:59.710Z,1019.02
2017-11-18T03:12:59.702Z,1019.01
2017-11-18T03:13:59.691Z,1018.98
2017-11-18T03:14:59.682Z,1018.97
2017-11-18T03:15:59.674Z,1018.97
2017-11-18T03:16:59.664Z,1018.99
2017-11-18T03:17:59.664Z,1018.94
2017-11-18T03:18:59.650Z,1018.95
2017-11-18T03:19:59.642Z,1018.92
2017-11-18T03:20:59.632Z,1018.96
2017-11-18T03:21:59.621Z,1018.91
2017-11-18T03:22:59.613Z,1018.88
2017-11-18T03:23:59.602Z,1018.89
2017-11-18T03:24:59.594Z,1018.88
2017-11-18T03:25:59.585Z,1018.89
2017-11-18T03:26:59.573Z,1018.87
2017-11-18T03:27:59.563Z,1018.79
2017-11-18T03:28:59.552Z,1018.86
2017-11-18T03:29:59.542Z,1018.81
2017-11-18T03:30:59.546Z,1018.85
2017-11-18T03:31:59.525Z,1018.87
2017-11-18T03:32:59.516Z,1018.82
2017-11-18T03:33:59.506Z,1018.83
2017-11-18T03:34:59.501Z,1018.85
2017-11-18T03:35:59.493Z,1018.89
2017-11-18T03:36:59.489Z,1018.84
2017-11-18T03:37:59.474Z,1018.91
2017-11-18T03:38:59.464Z,1018.89
2017-11-18T03:39:59.454Z,1018.88
2017-11-18T03:40:59.446Z,1018.78
2017-11-18T03:41:59.436Z,1018.85
2017-11-18T03:42:59.422Z,1018.86
2017-11-18T03:43:59.420Z,1018.82
2017-11-18T03:44:59.405Z,1018.81
2017-11-18T03:45:59.396Z,1018.85
2017-11-18T03:46:59.391Z,1018.83
2017-11-18T03:47:59.409Z,1018.81
2017-11-18T03:48:59.376Z,1018.84
2017-11-18T03:49:59.363Z,1018.77
2017-11-18T03:50:59.349Z,1018.79
2017-11-18T03:51:59.341Z,1018.76
2017-11-18T03:52:59.331Z,1018.75
2017-11-18T03:53:59.322Z,1018.72
2017-11-18T03:54:59.313Z,1018.74
2017-11-18T03:55:59.303Z,1018.65
2017-11-18T03:56:59.295Z,1018.67
2017-11-18T03:57:59.283Z,1018.68
2017-11-18T03:58:59.281Z,1018.66
2017-11-18T03:59:59.270Z,1018.66
2017-11-18T04:00:59.262Z,1018.65
2017-11-18T04:01:59.252Z,1018.67
2017-11-18T04:02:59.241Z,1018.65
2017-11-18T04:03:59.233Z,1018.67
2017-11-18T04:04:59.225Z,1018.66
2017-11-18T04:05:59.214Z,1018.63
2017-11-18T04:06:59.200Z,1018.72
2017-11-18T04:07:59.191Z,1018.65
2017-11-18T04:08:59.183Z,1018.70
2017-11-18T04:09:59.172Z,1018.63
2017-11-18T04:10:59.162Z,1018.64
2017-11-18T04:11:59.154Z,1018.67
2017-11-18T04:12:59.154Z,1018.64
2017-11-18T04:13:59.135Z,1018.64
2017-11-18T04:14:59.129Z,1018.63
2017-11-18T04:15:59.122Z,1018.61
2017-11-18T04:16:59.112Z,1018.59
2017-11-18T04:17:59.104Z,1018.58
2017-11-18T04:18:59.093Z,1018.58
2017-11-18T04:19:59.085Z,1018.59
2017-11-18T04:20:59.077Z,1018.57
2017-11-18T04:21:59.066Z,1018.60
2017-11-18T04:22:59.053Z,1018.54
2017-11-18T04:23:59.044Z,1018.58
2017-11-18T04:24:59.036Z,1018.59
2017-11-18T04:25:59.026Z,1018.55
2017-11-18T04:26:59.016Z,1018.52
2017-11-18T04:27:59.009Z,1018.54
2017-11-18T04:28:58.998Z,1018.48
2017-11-18T04:29:58.990Z,1018.47
2017-11-18T04:30:58.986Z,1018.42
2017-11-18T04:31:58.975Z,1018.38
2017-11-18T04:32:58.968Z,1018.39
2017-11-18T04:33:58.957Z,1018.30
2017-11-18T04:34:58.949Z,1018.29
2017-11-18T04:35:58.940Z,1018.27
2017-11-18T04:36:58.933Z,1018.21
2017-11-18T04:37:58.921Z,1018.20
2017-11-18T04:38:58.910Z,1018.18
2017-11-18T04:39:58.900Z,1018.29
2017-11-18T04:40:58.892Z,1018.23
2017-11-18T04:41:58.882Z,1018.27
2017-11-18T04:42:58.875Z,1018.20
2017-11-18T04:43:58.866Z,1018.21
2017-11-18T04:44:58.857Z,1018.28
2017-11-18T04:45:58.846Z,1018.20
2017-11-18T04:46:58.844Z,1018.20
2017-11-18T04:47:58.834Z,1018.15
2017-11-18T04:48:58.825Z,1018.13
2017-11-18T04:49:58.815Z,1018.13
2017-11-18T04:50:58.804Z,1018.16
2017-11-18T04:51:58.794Z,1018.15
2017-11-18T04:52:58.786Z,1018.06
2017-11-18T04:53:58.776Z,1018.10
2017-11-18T04:54:58.774Z,1018.16
2017-11-18T04:55:58.764Z,1018.09
2017-11-18T04:56:58.759Z,1018.09
2017-11-18T04:57:58.746Z,1018.10
2017-11-18T04:58:58.737Z,1018.09
2017-11-18T04:59:58.728Z,1018.12
2017-11-18T05:00:58.720Z,1018.07
2017-11-18T05:01:58.713Z,1018.12
2017-11-18T05:02:58.706Z,1018.02
2017-11-18T05:03:58.690Z,1018.08
2017-11-18T05:04:58.682Z,1018.03
2017-11-18T05:05:58.672Z,1018.05
2017-11-18T05:06:58.665Z,1018.01
2017-11-18T05:07:58.660Z,1018.00
2017-11-18T05:08:58.648Z,1017.99
2017-11-18T05:09:58.638Z,1017.95
2017-11-18T05:10:58.634Z,1018.00
2017-11-18T05:11:58.626Z,1017.99
2017-11-18T05:12:58.617Z,1017.98
2017-11-18T05:13:58.607Z,1017.97
2017-11-18T05:14:58.599Z,1017.99
2017-11-18T05:15:58.591Z,1017.99
2017-11-18T05:16:58.583Z,1018.00
2017-11-18T05:17:58.574Z,1017.99
2017-11-18T05:18:58.560Z,1017.93
2017-11-18T05:19:58.559Z,1017.92
2017-11-18T05:20:58.545Z,1017.89
2017-11-18T05:21:58.536Z,1017.86
2017-11-18T05:22:58.527Z,1017.82
2017-11-18T05:23:58.518Z,1017.80
2017-11-18T05:24:58.511Z,1017.78
2017-11-18T05:25:58.502Z,1017.66
2017-11-18T05:26:58.498Z,1017.69
2017-11-18T05:27:58.489Z,1017.65
2017-11-18T05:28:58.523Z,1017.69
2017-11-18T05:29:58.472Z,1017.64
2017-11-18T05:30:58.463Z,1017.67
2017-11-18T05:31:58.461Z,1017.68
2017-11-18T05:32:58.447Z,1017.58
2017-11-18T05:33:58.442Z,1017.60
2017-11-18T05:34:58.426Z,1017.60
2017-11-18T05:35:58.417Z,1017.57
2017-11-18T05:36:58.408Z,1017.62
2017-11-18T05:37:58.400Z,1017.59
2017-11-18T05:38:58.391Z,1017.54
2017-11-18T05:39:58.383Z,1017.49
2017-11-18T05:40:58.375Z,1017.52
2017-11-18T05:41:58.368Z,1017.59
2017-11-18T05:42:58.362Z,1017.53
2017-11-18T05:43:58.355Z,1017.61
2017-11-18T05:44:58.346Z,1017.59
2017-11-18T05:45:58.335Z,1017.68
2017-11-18T05:46:58.329Z,1017.59
2017-11-18T05:47:58.325Z,1017.57
2017-11-18T05:48:58.312Z,1017.53
2017-11-18T05:49:58.303Z,1017.48
2017-11-18T05:50:58.290Z,1017.53
2017-11-18T05:51:58.282Z,1017.53
2017-11-18T05:52:58.273Z,1017.52
2017-11-18T05:53:58.263Z,1017.48
2017-11-18T05:54:58.260Z,1017.55
2017-11-18T05:55:58.252Z,1017.54
2017-11-18T05:56:58.243Z,1017.58
2017-11-18T05:57:58.233Z,1017.61
2017-11-18T05:58:58.221Z,1017.63
2017-11-18T05:59:58.214Z,1017.66
2017-11-18T06:00:58.205Z,1017.60
2017-11-18T06:01:58.195Z,1017.58
2017-11-18T06:02:58.187Z,1017.55
2017-11-18T06:03:58.179Z,1017.59
2017-11-18T06:04:58.171Z,1017.58
2017-11-18T06:05:58.162Z,1017.59
2017-11-18T06:06:58.156Z,1017.59
2017-11-18T06:07:58.148Z,1017.57
2017-11-18T06:08:58.141Z,1017.61
2017-11-18T06:09:58.131Z,1017.56
2017-11-18T06:10:58.124Z,1017.55
2017-11-18T06:11:58.118Z,1017.57
2017-11-18T06:12:58.108Z,1017.53
2017-11-18T06:13:58.097Z,1017.56
2017-11-18T06:14:58.086Z,1017.55
2017-11-18T06:15:58.077Z,1017.55
2017-11-18T06:16:58.070Z,1017.49
2017-11-18T06:17:58.059Z,1017.43
2017-11-18T06:18:58.051Z,1017.44
2017-11-18T06:19:58.044Z,1017.40
2017-11-18T06:20:58.036Z,1017.42
2017-11-18T06:21:58.025Z,1017.40
2017-11-18T06:22:58.021Z,1017.39
2017-11-18T06:23:58.014Z,1017.36
2017-11-18T06:24:58.005Z,1017.36
2017-11-18T06:25:57.997Z,1017.36
2017-11-18T06:26:57.988Z,1017.41
2017-11-18T06:27:57.981Z,1017.41
2017-11-18T06:28:57.972Z,1017.45
2017-11-18T06:29:57.963Z,1017.42
2017-11-18T06:30:57.950Z,1017.46
2017-11-18T06:31:57.942Z,1017.46
2017-11-18T06:32:57.935Z,1017.47
2017-11-18T06:33:57.926Z,1017.52
2017-11-18T06:34:57.918Z,1017.45
2017-11-18T06:35:57.909Z,1017.48
2017-11-18T06:36:57.901Z,1017.40
2017-11-18T06:37:57.891Z,1017.45
2017-11-18T06:38:57.897Z,1017.40
2017-11-18T06:39:57.880Z,1017.44
2017-11-18T06:40:57.873Z,1017.48
2017-11-18T06:41:57.861Z,1017.46
2017-11-18T06:42:57.856Z,1017.52
2017-11-18T06:43:57.846Z,1017.49
2017-11-18T06:44:57.837Z,1017.46
2017-11-18T06:45:57.829Z,1017.51
2017-11-18T06:46:57.827Z,1017.46
2017-11-18T06:47:57.807Z,1017.39
2017-11-18T06:48:57.804Z,1017.41
2017-11-18T06:49:57.794Z,1017.45
2017-11-18T06:50:57.782Z,1017.43
2017-11-18T06:51:57.775Z,1017.43
2017-11-18T06:52:57.766Z,1017.44
2017-11-18T06:53:57.757Z,1017.43
2017-11-18T06:54:57.753Z,1017.43
2017-11-18T06:55:57.746Z,1017.38
2017-11-18T06:56:57.738Z,1017.44
2017-11-18T06:57:57.728Z,1017.41
2017-11-18T06:58:57.715Z,1017.42
2017-11-18T06:59:57.707Z,1017.41
2017-11-18T07:00:57.700Z,1017.37
2017-11-18T07:01:57.690Z,1017.37
2017-11-18T07:02:57.687Z,1017.39
2017-11-18T07:03:57.679Z,1017.29
2017-11-18T07:04:57.670Z,1017.35
2017-11-18T07:05:57.661Z,1017.37
2017-11-18T07:06:57.653Z,1017.36
2017-11-18T07:07:57.645Z,1017.37
2017-11-18T07:08:57.637Z,1017.39
2017-11-18T07:09:57.628Z,1017.39
2017-11-18T07:10:57.614Z,1017.45
2017-11-18T07:11:57.608Z,1017.45
2017-11-18T07:12:57.600Z,1017.47
2017-11-18T07:13:57.591Z,1017.48
2017-11-18T07:14:57.584Z,1017.49
2017-11-18T07:15:57.574Z,1017.49
2017-11-18T07:16:57.566Z,1017.47
2017-11-18T07:17:57.556Z,1017.50
2017-11-18T07:18:57.553Z,1017.54
2017-11-18T07:19:57.545Z,1017.53
2017-11-18T07:20:57.537Z,1017.58
2017-11-18T07:21:57.528Z,1017.55
2017-11-18T07:22:57.520Z,1017.54
2017-11-18T07:23:57.515Z,1017.55
2017-11-18T07:24:57.505Z,1017.53
2017-11-18T07:25:57.494Z,1017.59
2017-11-18T07:26:57.483Z,1017.51
2017-11-18T07:27:57.476Z,1017.53
2017-11-18T07:28:57.468Z,1017.52
2017-11-18T07:29:57.458Z,1017.57
2017-11-18T07:30:57.450Z,1017.54
2017-11-18T07:31:57.441Z,1017.52
2017-11-18T07:32:57.435Z,1017.49
2017-11-18T07:33:57.424Z,1017.43
2017-11-18T07:34:57.421Z,1017.46
2017-11-18T07:35:57.413Z,1017.45
2017-11-18T07:36:57.405Z,1017.45
2017-11-18T07:37:57.400Z,1017.44
2017-11-18T07:38:57.420Z,1017.44
2017-11-18T07:39:57.379Z,1017.46
2017-11-18T07:40:57.376Z,1017.49
2017-11-18T07:41:57.363Z,1017.37
2017-11-18T07:42:57.350Z,1017.42
2017-11-18T07:43:57.346Z,1017.42
2017-11-18T07:44:57.334Z,1017.42
2017-11-18T07:45:57.346Z,1017.32
2017-11-18T07:46:57.318Z,1017.33
2017-11-18T07:47:57.310Z,1017.30
2017-11-18T07:48:57.303Z,1017.26
2017-11-18T07:49:57.293Z,1017.25
2017-11-18T07:50:57.291Z,1017.28
2017-11-18T07:51:57.281Z,1017.29
2017-11-18T07:52:57.274Z,1017.31
2017-11-18T07:53:57.265Z,1017.27
2017-11-18T07:54:57.257Z,1017.32
2017-11-18T07:55:57.249Z,1017.27
2017-11-18T07:56:57.247Z,1017.25
2017-11-18T07:57:57.233Z,1017.21
2017-11-18T07:58:57.255Z,1017.21
2017-11-18T07:59:57.211Z,1017.20
2017-11-18T08:00:57.204Z,1017.20
2017-11-18T08:01:57.195Z,1017.20
2017-11-18T08:02:57.193Z,1017.20
2017-11-18T08:03:57.184Z,1017.19
2017-11-18T08:04:57.174Z,1017.19
2017-11-18T08:05:57.167Z,1017.19
2017-11-18T08:06:57.155Z,1017.18
2017-11-18T08:07:57.154Z,1017.23
2017-11-18T08:08:57.141Z,1017.16
2017-11-18T08:09:57.129Z,1017.09
2017-11-18T08:10:57.122Z,1017.08
2017-11-18T08:11:57.115Z,1017.11
2017-11-18T08:12:57.113Z,1017.11
2017-11-18T08:13:57.100Z,1017.17
2017-11-18T08:14:57.094Z,1017.09
2017-11-18T08:15:57.086Z,1017.19
2017-11-18T08:16:57.083Z,1017.10
2017-11-18T08:17:57.070Z,1017.13
2017-11-18T08:18:57.061Z,1017.14
2017-11-18T08:19:57.053Z,1017.11
2017-11-18T08:20:57.045Z,1017.07
2017-11-18T08:21:57.038Z,1017.12
2017-11-18T08:22:57.025Z,1017.06
2017-11-18T08:23:57.021Z,1016.99
2017-11-18T08:24:57.010Z,1016.97
2017-11-18T08:25:57.005Z,1017.00
2017-11-18T08:26:56.993Z,1017.01
2017-11-18T08:27:56.984Z,1017.03
2017-11-18T08:28:56.978Z,1017.00
2017-11-18T08:29:56.970Z,1017.02
2017-11-18T08:30:56.966Z,1016.91
2017-11-18T08:31:56.957Z,1017.00
2017-11-18T08:32:56.950Z,1016.98
2017-11-18T08:33:56.943Z,1017.02
2017-11-18T08:34:56.934Z,1016.98
2017-11-18T08:35:56.925Z,1016.99
2017-11-18T08:36:56.918Z,1016.88
2017-11-18T08:37:56.910Z,1016.92
2017-11-18T08:38:56.897Z,1016.88
2017-11-18T08:39:56.890Z,1016.92
2017-11-18T08:40:56.881Z,1016.99
2017-11-18T08:41:56.873Z,1016.97
2017-11-18T08:42:56.864Z,1016.94
2017-11-18T08:43:56.860Z,1017.01
2017-11-18T08:44:56.850Z,1016.95
2017-11-18T08:45:56.843Z,1016.87
2017-11-18T08:46:56.838Z,1016.88
2017-11-18T08:47:56.837Z,1016.88
2017-11-18T08:48:56.827Z,1016.87
2017-11-18T08:49:56.813Z,1016.84
2017-11-18T08:50:56.805Z,1016.88
2017-11-18T08:51:56.799Z,1016.84
2017-11-18T08:52:56.792Z,1016.83
2017-11-18T08:53:56.783Z,1016.82
2017-11-18T08:54:56.770Z,1016.79
2017-11-18T08:55:56.764Z,1016.85
2017-11-18T08:56:56.768Z,1016.74
2017-11-18T08:57:56.746Z,1016.72
2017-11-18T08:58:56.739Z,1016.75
2017-11-18T08:59:56.735Z,1016.78
2017-11-18T09:00:56.724Z,1016.79
2017-11-18T09:01:56.715Z,1016.80
2017-11-18T09:02:56.720Z,1016.69
2017-11-18T09:03:56.705Z,1016.70
2017-11-18T09:04:56.696Z,1016.65
2017-11-18T09:05:56.689Z,1016.67
2017-11-18T09:06:56.678Z,1016.60
2017-11-18T09:07:56.670Z,1016.58
2017-11-18T09:08:56.662Z,1016.50
2017-11-18T09:09:56.655Z,1016.58
2017-11-18T09:10:56.650Z,1016.51
2017-11-18T09:11:56.642Z,1016.46
2017-11-18T09:12:56.635Z,1016.45
2017-11-18T09:13:56.627Z,1016.46
2017-11-18T09:14:56.619Z,1016.41
2017-11-18T09:15:56.612Z,1016.47
2017-11-18T09:16:56.605Z,1016.44
2017-11-18T09:17:56.595Z,1016.44
2017-11-18T09:18:56.590Z,1016.43
2017-11-18T09:19:56.577Z,1016.45
2017-11-18T09:20:56.569Z,1016.40
2017-11-18T09:21:56.560Z,1016.39
2017-11-18T09:22:56.552Z,1016.37
2017-11-18T09:23:56.546Z,1016.36
2017-11-18T09:24:56.536Z,1016.32
2017-11-18T09:25:56.529Z,1016.29
2017-11-18T09:26:56.526Z,1016.33
2017-11-18T09:27:56.518Z,1016.29
2017-11-18T09:28:56.509Z,1016.30
2017-11-18T09:29:56.503Z,1016.34
2017-11-18T09:30:56.495Z,1016.32
2017-11-18T09:31:56.516Z,1016.19
2017-11-18T09:32:56.480Z,1016.25
2017-11-18T09:33:56.471Z,1016.19
2017-11-18T09:34:56.460Z,1016.15
2017-11-18T09:35:56.452Z,1016.23
2017-11-18T09:36:56.470Z,1016.22
2017-11-18T09:37:56.436Z,1016.25
2017-11-18T09:38:56.427Z,1016.22
2017-11-18T09:39:56.421Z,1016.25
2017-11-18T09:40:56.414Z,1016.25
2017-11-18T09:41:56.404Z,1016.26
2017-11-18T09:42:56.402Z,1016.26
2017-11-18T09:43:56.395Z,1016.36
2017-11-18T09:44:56.388Z,1016.24
2017-11-18T09:45:56.379Z,1016.23
2017-11-18T09:46:56.371Z,1016.23
2017-11-18T09:47:56.364Z,1016.24
2017-11-18T09:48:56.356Z,1016.25
2017-11-18T09:49:56.349Z,1016.25
2017-11-18T09:50:56.336Z,1016.28
2017-11-18T09:51:56.327Z,1016.21
2017-11-18T09:52:56.322Z,1016.25
2017-11-18T09:53:56.312Z,1016.20
2017-11-18T09:54:56.305Z,1016.27
2017-11-18T09:55:56.299Z,1016.27
2017-11-18T09:56:56.292Z,1016.31
2017-11-18T09:57:56.281Z,1016.28
2017-11-18T09:58:56.277Z,1016.33
2017-11-18T09:59:56.272Z,1016.28
2017-11-18T10:00:56.264Z,1016.30
2017-11-18T10:01:56.256Z,1016.30
2017-11-18T10:02:56.249Z,1016.31
2017-11-18T10:03:56.242Z,1016.29
2017-11-18T10:04:56.234Z,1016.31
2017-11-18T10:05:56.225Z,1016.28
2017-11-18T10:06:56.215Z,1016.34
2017-11-18T10:07:56.208Z,1016.32
2017-11-18T10:08:56.200Z,1016.35
2017-11-18T10:09:56.195Z,1016.25
2017-11-18T10:10:56.189Z,1016.26
2017-11-18T10:11:56.180Z,1016.20
2017-11-18T10:12:56.173Z,1016.17
2017-11-18T10:13:56.166Z,1016.15
2017-11-18T10:14:56.158Z,1016.13
2017-11-18T10:15:56.147Z,1016.15
2017-11-18T10:16:56.140Z,1016.14
2017-11-18T10:17:56.132Z,1016.20
2017-11-18T10:18:56.123Z,1016.11
2017-11-18T10:19:56.118Z,1016.09
2017-11-18T10:20:56.109Z,1016.13
2017-11-18T10:21:56.101Z,1016.10
2017-11-18T10:22:56.098Z,1016.09
2017-11-18T10:23:56.091Z,1016.20
2017-11-18T10:24:56.084Z,1016.13
2017-11-18T10:25:56.081Z,1016.16
2017-11-18T10:26:56.072Z,1016.15
2017-11-18T10:27:56.063Z,1016.17
2017-11-18T10:28:56.059Z,1016.14
2017-11-18T10:29:56.047Z,1016.18
2017-11-18T10:30:56.036Z,1016.11
2017-11-18T10:31:56.029Z,1016.14
2017-11-18T10:32:56.029Z,1016.12
2017-11-18T10:33:56.014Z,1016.10
2017-11-18T10:34:56.005Z,1016.07
2017-11-18T10:35:56.000Z,1016.08
2017-11-18T10:36:55.993Z,1016.06
2017-11-18T10:37:55.986Z,1016.06
2017-11-18T10:38:55.982Z,1016.00
2017-11-18T10:39:55.974Z,1016.05
2017-11-18T10:40:55.969Z,1015.95
2017-11-18T10:41:55.961Z,1015.81
2017-11-18T10:42:55.953Z,1015.80
2017-11-18T10:43:55.946Z,1015.79
2017-11-18T10:44:55.940Z,1015.80
2017-11-18T10:45:55.932Z,1015.77
2017-11-18T10:46:55.927Z,1015.69
2017-11-18T10:47:55.914Z,1015.73
2017-11-18T10:48:55.907Z,1015.71
2017-11-18T10:49:55.898Z,1015.71
2017-11-18T10:50:55.896Z,1015.74
2017-11-18T10:51:55.886Z,1015.67
2017-11-18T10:52:55.878Z,1015.76
2017-11-18T10:53:55.871Z,1015.70
2017-11-18T10:54:55.869Z,1015.67
2017-11-18T10:55:55.862Z,1015.74
2017-11-18T10:56:55.855Z,1015.71
2017-11-18T10:57:55.849Z,1015.80
2017-11-18T10:58:55.841Z,1015.69
2017-11-18T10:59:55.836Z,1015.69
2017-11-18T11:00:55.829Z,1015.60
2017-11-18T11:01:55.820Z,1015.64
2017-11-18T11:02:55.809Z,1015.59
2017-11-18T11:03:55.802Z,1015.57
2017-11-18T11:04:55.797Z,1015.61
2017-11-18T11:05:55.790Z,1015.55
2017-11-18T11:06:55.782Z,1015.51
2017-11-18T11:07:55.796Z,1015.50
2017-11-18T11:08:55.769Z,1015.57
2017-11-18T11:09:55.762Z,1015.55
2017-11-18T11:10:55.758Z,1015.59
2017-11-18T11:11:55.753Z,1015.57
2017-11-18T11:12:55.744Z,1015.53
2017-11-18T11:13:55.737Z,1015.50
2017-11-18T11:14:55.733Z,1015.47
2017-11-18T11:15:55.727Z,1015.47
2017-11-18T11:16:55.720Z,1015.42
2017-11-18T11:17:55.712Z,1015.37
2017-11-18T11:18:55.700Z,1015.42
2017-11-18T11:19:55.692Z,1015.44
2017-11-18T11:20:55.687Z,1015.42
2017-11-18T11:21:55.681Z,1015.37
2017-11-18T11:22:55.671Z,1015.36
2017-11-18T11:23:55.670Z,1015.32
2017-11-18T11:24:55.660Z,1015.31
2017-11-18T11:25:55.651Z,1015.27
2017-11-18T11:26:55.651Z,1015.21
2017-11-18T11:27:55.644Z,1015.25
2017-11-18T11:28:55.636Z,1015.17
2017-11-18T11:29:55.628Z,1015.18
2017-11-18T11:30:55.622Z,1015.14
2017-11-18T11:31:55.615Z,1015.04
2017-11-18T11:32:55.609Z,1014.99
2017-11-18T11:33:55.600Z,1015.07
2017-11-18T11:34:55.592Z,1015.03
2017-11-18T11:35:55.585Z,1015.01
2017-11-18T11:36:55.579Z,1014.94
2017-11-18T11:37:55.570Z,1014.98
2017-11-18T11:38:55.565Z,1014.94
2017-11-18T11:39:55.558Z,1014.82
2017-11-18T11:40:55.552Z,1014.88
2017-11-18T11:41:55.544Z,1014.85
2017-11-18T11:42:55.543Z,1014.82
2017-11-18T11:43:55.535Z,1014.77
2017-11-18T11:44:55.531Z,1014.69
2017-11-18T11:45:55.522Z,1014.70
2017-11-18T11:46:55.516Z,1014.73
2017-11-18T11:47:55.508Z,1014.76
2017-11-18T11:48:55.502Z,1014.76
2017-11-18T11:49:55.496Z,1014.81
2017-11-18T11:50:55.492Z,1014.82
2017-11-18T11:51:55.479Z,1014.76
2017-11-18T11:52:55.473Z,1014.73
2017-11-18T11:53:55.465Z,1014.72
2017-11-18T11:54:55.460Z,1014.73
2017-11-18T11:55:55.455Z,1014.67
2017-11-18T11:56:55.445Z,1014.73
2017-11-18T11:57:55.438Z,1014.68
2017-11-18T11:58:55.437Z,1014.66
2017-11-18T11:59:55.431Z,1014.69
2017-11-18T12:00:55.423Z,1014.58
2017-11-18T12:01:55.416Z,1014.59
2017-11-18T12:02:55.411Z,1014.59
2017-11-18T12:03:55.405Z,1014.68
2017-11-18T12:04:55.400Z,1014.68